105 West longitude  AMC-18 Satellite   Pointing Angles       CARIBBEAN REGION
  2008 by Global Communications        Plain, Wisconsin  U.S.A.  
  EL & AZ    SIG LNBF   EL & AZ     SIG LNBF
BERMUDA  32.9  237.7   -6.0 dB 4:30   +46 PUERTO RICO    
BAHAMAS     Mayaguez 42.1  248.1   -3.5 dB 4:00   +62
Freeport 47.5  227.9   -1.0 dB 4:30   +42 Ponce 41.7  248.7   -3.5 dB 4:00   +62
Nassau 47.5  230.9   -1.5 dB 4:30   +45 San Juan 41.0  248.5   -3.5 dB 4:00   +62
Andros Town 48.1  230.9   -1.5 dB 4:30   +45 VIRGIN ISLANDS     
Governor's Harbour 46.5  232.2   -2.0 dB 4:30   +46 Saint Thomas - USVI 39.9  249.4   -3.5 dB 4:00   +63
George Town 47.3  234.5   -2.5 dB 4:30   +48 Saint Croix - USVI 40.0  250.2   -3.5 dB 4:00   +64
Cockburn Town 45.9  235.4   -2.5 dB 4:30   +49 Tortola - British VI 39.6  249.6   -3.5 dB 4:00   +63
Clarence Town 46.9  235.8   -2.5 dB 4:30   +50      
Abraham's Bay 45.5  238.8   -3.0 dB 4:30   +52 ANGUILLA & ST MARTIN 38.2  251.0   -4.0 dB 4:00   +64
Matthew Town 47.1  239.6   -3.0 dB 4:00   +54 BARBUDA 37.1  252.1   -4.0 dB 4:00   +65
TURKS & CAICOS ISLANDS     ST KITTS-NEVIS 38.2  251.8   -4.0 dB 4:00   +65
Providenciales 45.3  239.9   -3.0 dB 4:00   +53 ANTIGUA 37.3  252.6   -4.0 dB 4:00   +66
Grand Turk 44.7  241.0   -3.0 dB 4:00   +54      
CUBA     MONTSERRAT 37.8  252.8   -4.0 dB 4:00   +66
Pinar del Rio 54.4  225.6   -1.5 dB 4:30   +41      
Havana 52.9  226.7   -1.0 dB 4:30   +42 GUADELOUPE 37.3  253.6   -4.0 dB 4:00   +67
Matanzas 52.4  227.9   -1.5 dB 4:30   +43      
Cardenas 52.0  228.5   -1.5 dB 4:30   +44 DOMINICA 37.4  254.5   -4.0 dB  3:30   +68
Cienfuegos 52.1  230.3   -1.5 dB 4:30   +45      
Santa Clara 51.5  230.7   -1.5 dB 4:30   +46 MARTINIQUE 37.3  255.3   -4.0 dB 3:30   +69
Camaguey 50.5  234.5   -2.0 dB 4:30   +49      
Holguin 49.3  237.0   -2.5 dB 4:30   +52 ST LUCIA 37.4  255.9   -4.0 dB 3:30   +70
Santiago de Cuba 49.5  238.5   -2.5 dB 4:00   +53      
Guantanamo 48.9  239.0   -2.5 dB 4:00   +54 ST VINCENT 37.8  256.7   -4.5 dB 3:30   +71
CAYMAN ISLANDS          
Grand Cayman 54.9  232.9   -2.5 dB 4:30   +49 BARBADOS 36.1  257.4   -4.5 dB 3:30   +72
Little Cayman 53.4  234.1   -2.5 dB 4:30   +50      
JAMAICA     GRENADA 38.6  257.6   -4.5 dB 3:30   +73
Montego Bay 52.3  238.3   -3.0 dB 4:00   +49      
Kingston 51.6  240.0   -3.0 dB 4:00   +55 TOBAGO 37.7  258.7   -4.5 dB 3:30   +72
HAITI     TRINIDAD    
Cap-Haitien 46.3  242.4   -3.0 dB 4:00   +57 Port Of Spain 38.7  259.0   -5.0 dB 3:30   +75
Port Au Prince 47.0  243.1   -3.0 dB 4:00   +58      
DOMINICAN REPUBLIC     NETHERLANDS ANTILLES    
Santiago 45.0  243.9   -3.0 dB 4:00   +58 Aruba 47.3  252.8   -4.0 dB 3:30   +69
Santo Domingo 44.7  245.7   -3.0 dB 4:00   +60 Curacao 46.2  254.0   -4.0 dB 3:30   +70
      Bonaire 45.5  254.2   -4.0 dB 3:30   +70


105 West longitude        AMC-18 Satellite            POINTING ANGLES

EXPLANATION:         
EL  =  Elevation angle in degrees above the horizon
AZ  =  True directional or azimuth  heading in degrees  (180 = South)
SIG =  Signal strength measured in dB below typical level received at center of coverage in U.S. Lower 48
           Calculation based upon interpretation of official coverage maps;  check locally for real-world levels.
LNBF notes:  Clock position of F-connector, as viewed from front of antenna  6:00 = straight down
   Rotation given in degrees Clockwise (+ numbers) or CCW (minus numbers) from center reference.

CENTRAL AMERICA SOUTH AMERICA - Northern
  EL & AZ    SIG LNBF    EL & AZ    SIG LNBF
BELIZE     COLOMBIA    
Belize City 61.8  225.1   -3.0 dB 4:30   +43 Cali 56.5  263.8  -11.0 dB 3:00   +83
Belmopan 62.5  224.5   -3.0 dB 4:30   +42 Bogota 53.7  262.4  -10.0 dB 3:30   +81
Punta Gorda 63.4  226.3   -3.0 dB 4:30   +44 Medellin 55.0  259.1   -9.0 dB 3:30   +78
GUATEMALA     Monteria 54.7  254.6   -8.0 dB 3:30   +72
Coban 65.1  224.5   -3.5 dB 4:30   +42 Barranquilla 52.8  251.8   -5.0 dB 3:30   +69
Guatemala City 66.0  225.7   -4.0 dB 4:30   +44 Santa Marta 52.1  251.9   -5.0 dB 3:30   +69
Mazatenango 66.9  223.8   -4.0 dB 4:30   +42      
Puerto Barrios 63.6  227.4   -4.0 dB 4:30   +45 VENEZUELA    
Quezaltenango 66.6  223.2   -4.0 dB 4:30   +42 San Cristobal 50.9  258.1   -8.0 dB 3:30   +76
HONDURAS     Maracaibo 49.5  254.3   -5.0 dB 3:30   +71
Juticalpa 62.3  233.3   -4.0 dB 4:30   +51 Valencia 45.4  256.9   -5.0 dB 3:30   +74
La Ceiba 62.0  230.7   -3.5 dB 4:30   +48 Caracas 44.5  256.9   -5.0 dB 3:30   +73
San Pedro Sula 63.3  229.0   -3.5 dB 4:30   +47 Barcelona 42.2  258.3   -5.0 dB 3:30   +75
Tegucigalpa 63.6  232.8   -4.0 dB 4:30   +51 Cumana 41.6  258.1   -5.0 dB 3:30   +74
EL SALVADOR     Ciudad Bolivar 41.3  260.9   -6.0 dB 3:30   +78
San Miguel 64.9  232.3   -5.0 dB 4:30   +50 Maturin 40.7  259.3   -5.0 dB 3:30   +76
San Salvador 65.6  230.1   -5.0 dB 4:30   +48 Ciudad Guayana 40.4  260.9   -6.0 dB 3:30   +78
Santa Ana 65.7  228.9   -5.0 dB 4:30   +47      
NICARAGUA     GUYANA    
Bluefields 61.6  241.9   -5.0 dB 4:00   +60 Georgetown 35.8  263.7   -8.0 dB 3:30   +81
Chinandega 64.6  235.8   -4.5 dB 4:00   +54      
Leon 64.4  236.7   -4.5 dB 4:00   +55 SURINAM    
Managua 64.1  238.2   -5.0 dB 4:00   +56 Paramaibo 32.6  265.1   -9.0 dB 3:30   +82
Matagalpa 63.3  237.0   -4.5 dB 4:00   +55      
COSTA RICA     FRENCH GUIANA    
Liberia 64.0  242.7   -7.0 dB 4:00   +61 Cayenne 29.6  266.3  -11.0 dB 3:00   +84
Limon 61.8  246.7   -7.0 dB 4:00   +65      
Puntarenas 63.7  244.7   -7.0 dB 4:00   +63      
San Isidro 62.8  247.3   -7.5 dB 4:00   +66      
San Jose 63.0  245.8   -7.0 dB 4:00   +64      
PANAMA          
Chitre 59.9  253.1  -10.0 dB 3:30   +71      
Colon 58.8  250.8   -8.0 dB 3:30   +69 Copyright   2008    
David 61.9  250.7   -9.0 dB 3:30   +69 GLOBAL COMMUNICATIONS    
La Chorrera 58.9  251.8   -8.0 dB 3:30   +70 S-9141 State Road 23    
Las Palmas 57.2  253.9  -10.0 dB 3:30   +72 Plain, Wisconsin  53577  U.S.A.    
Panama City 58.5  251.8   -8.0 dB 3:30   +70 www.global-cm.net    
Santiago 60.5  252.4  -10.0 dB 3:30   +71